CheckWX is a tool to help pilots better visualize weather data.  It is not intended as a substitute for an official pre-flight weather briefing.

15:10:04 UTC

FGSL TAF
Malabo Airport
Malabo, Equatorial Guinea
TAF FGSL 191100Z 1912/2018 24008KT 9999 SCT012 FEW020CB TEMPO 1919/2006 TS

Nov-19@
12:00 UTC

Nov-19 @ 12:00 UTC

Nov-20@
18:00 UTC

Nov-20 @ 18:00 UTC

TAF FGSL 191100Z 1912/2018 24008KT 9999 SCT012 FEW020CB
Wind
  • 240° at 8 KTS
Cloud Levels
  • Scattered at 1,200' AGL
  • Few at 2,000' AGL

Nov-19@
19:00 UTC

Nov-19 @ 19:00 UTC

Nov-20@
06:00 UTC

Nov-20 @ 06:00 UTC

TEMPO 1919/2006 TS

Temporary

Temporary Changes expected for less than half the time period

Conditions
Thunderstorm